createdAt,value
2022-09-21T03:16:08.328Z,9.80
2022-09-21T03:18:36.603Z,9.80
2022-09-21T03:21:04.935Z,9.80
2022-09-21T03:23:33.151Z,9.80
2022-09-21T03:26:03.499Z,9.80
2022-09-21T03:28:31.583Z,9.80
2022-09-21T03:30:59.925Z,9.70
2022-09-21T03:33:29.587Z,9.80
2022-09-21T03:35:57.686Z,9.80
2022-09-21T03:38:27.001Z,9.80
2022-09-21T03:40:58.212Z,9.80
2022-09-21T03:43:26.778Z,9.80
2022-09-21T03:45:55.140Z,9.90
2022-09-21T03:48:23.374Z,10.00
2022-09-21T03:50:52.862Z,9.90
2022-09-21T03:53:21.042Z,9.90
2022-09-21T03:55:50.698Z,9.90
2022-09-21T03:58:18.798Z,9.90
2022-09-21T04:00:46.905Z,9.90
2022-09-21T04:03:14.958Z,9.90
2022-09-21T04:05:43.032Z,9.90
2022-09-21T04:08:12.476Z,9.90
2022-09-21T04:10:42.740Z,9.90
2022-09-21T04:13:13.402Z,9.90
2022-09-21T04:15:41.621Z,10.00
2022-09-21T04:18:09.920Z,10.00
2022-09-21T04:20:37.975Z,10.00
2022-09-21T04:23:09.999Z,10.00
2022-09-21T04:25:39.569Z,10.00
2022-09-21T04:28:07.885Z,10.00
2022-09-21T04:30:37.969Z,10.00
2022-09-21T04:33:06.428Z,10.00
2022-09-21T04:35:34.511Z,10.00
2022-09-21T04:38:03.428Z,10.00
2022-09-21T04:40:31.574Z,10.00
2022-09-21T04:43:01.101Z,10.00
2022-09-21T04:45:29.166Z,10.10
2022-09-21T04:47:57.267Z,10.10
2022-09-21T04:50:25.758Z,10.10
2022-09-21T04:53:04.522Z,10.10
2022-09-21T04:55:32.728Z,10.10
2022-09-21T04:58:02.251Z,10.20
2022-09-21T05:00:30.338Z,10.20
2022-09-21T05:02:58.443Z,10.20
2022-09-21T05:05:26.674Z,10.30
2022-09-21T05:07:54.796Z,10.30
2022-09-21T05:10:21.938Z,10.30
2022-09-21T05:12:50.234Z,10.30
2022-09-21T05:15:20.526Z,10.30
2022-09-21T05:17:48.732Z,10.30
2022-09-21T05:20:16.991Z,10.40
2022-09-21T05:22:45.113Z,10.40
2022-09-21T05:25:13.180Z,10.40
2022-09-21T05:27:41.257Z,10.40
2022-09-21T05:30:11.856Z,10.40
2022-09-21T05:32:49.196Z,10.50
2022-09-21T05:35:26.079Z,10.50
2022-09-21T05:38:00.374Z,10.50
2022-09-21T05:40:29.425Z,10.50
2022-09-21T05:42:58.182Z,10.50
2022-09-21T05:45:28.897Z,10.50
2022-09-21T05:48:12.294Z,10.60
2022-09-21T05:50:54.233Z,10.60
2022-09-21T05:53:44.574Z,10.60
2022-09-21T05:56:27.295Z,10.80
2022-09-21T05:59:05.126Z,10.70
2022-09-21T06:01:46.642Z,10.70
2022-09-21T06:04:17.148Z,10.70
2022-09-21T06:06:47.627Z,10.70
2022-09-21T06:09:15.796Z,10.60
2022-09-21T06:11:44.104Z,10.70
2022-09-21T06:14:12.243Z,10.60
2022-09-21T06:16:41.601Z,10.70
2022-09-21T06:19:12.479Z,10.70
2022-09-21T06:21:42.055Z,10.90
2022-09-21T06:24:10.678Z,10.90
2022-09-21T06:26:39.186Z,10.90
2022-09-21T06:29:07.465Z,10.90
2022-09-21T06:31:36.522Z,10.90
2022-09-21T06:34:05.089Z,11.00
2022-09-21T06:36:33.459Z,10.90
2022-09-21T06:39:03.051Z,10.90
2022-09-21T06:41:31.221Z,10.90
2022-09-21T06:44:00.538Z,11.10
2022-09-21T06:46:28.710Z,10.90
2022-09-21T06:48:57.183Z,10.90
2022-09-21T06:51:25.305Z,11.00
2022-09-21T06:53:56.216Z,11.10
2022-09-21T06:56:27.166Z,11.00
2022-09-21T06:58:56.866Z,11.10
2022-09-21T07:01:25.468Z,11.00
2022-09-21T07:03:54.103Z,11.00
2022-09-21T07:06:22.245Z,11.00
2022-09-21T07:11:42.842Z,11.20
2022-09-21T07:14:10.913Z,11.30
2022-09-21T07:16:39.715Z,11.30
2022-09-21T07:19:11.923Z,11.30
2022-09-21T07:21:40.482Z,11.40
2022-09-21T07:24:12.259Z,11.50
2022-09-21T07:26:42.398Z,11.50
2022-09-21T07:29:10.624Z,11.40
2022-09-21T07:31:38.890Z,11.40
2022-09-21T07:34:07.047Z,11.30
2022-09-21T07:36:35.215Z,11.40
2022-09-21T07:39:03.612Z,11.30
2022-09-21T07:41:31.757Z,11.40
2022-09-21T07:44:01.361Z,11.50
2022-09-21T07:46:29.624Z,11.60
2022-09-21T07:48:58.022Z,11.90
2022-09-21T07:51:26.357Z,12.00
2022-09-21T07:53:57.779Z,11.90
2022-09-21T07:56:26.486Z,12.00
2022-09-21T07:59:08.683Z,12.00
2022-09-21T08:01:40.675Z,11.80
2022-09-21T08:04:11.296Z,11.80
2022-09-21T08:06:41.117Z,11.70
2022-09-21T08:09:09.612Z,11.70
2022-09-21T08:11:39.226Z,11.60
2022-09-21T08:14:07.630Z,11.60
2022-09-21T08:16:39.292Z,11.70
2022-09-21T08:19:07.475Z,11.60
2022-09-21T08:21:35.642Z,11.60
2022-09-21T08:24:04.279Z,11.60
2022-09-21T08:26:32.457Z,11.60
2022-09-21T08:29:00.799Z,11.60
2022-09-21T08:31:29.219Z,11.60
2022-09-21T08:33:58.802Z,11.60
2022-09-21T08:36:27.154Z,11.80
2022-09-21T08:38:57.004Z,11.80
2022-09-21T08:41:27.618Z,11.80
2022-09-21T08:44:01.431Z,12.10
2022-09-21T08:46:31.771Z,12.20
2022-09-21T08:49:07.082Z,12.30
2022-09-21T08:51:39.383Z,12.30
2022-09-21T08:54:15.173Z,12.40
2022-09-21T08:57:04.070Z,12.50
2022-09-21T08:59:31.486Z,12.50
2022-09-21T09:02:14.313Z,12.50
2022-09-21T09:04:54.092Z,12.70
2022-09-21T09:07:34.856Z,12.80
2022-09-21T09:10:19.292Z,12.80
2022-09-21T09:12:59.651Z,12.80
2022-09-21T09:15:42.005Z,12.90
2022-09-21T09:18:15.166Z,13.10
2022-09-21T09:20:48.510Z,13.00
2022-09-21T09:23:23.845Z,13.00
2022-09-21T09:25:54.970Z,13.00
2022-09-21T09:28:31.767Z,13.00
2022-09-21T09:31:06.222Z,13.10
2022-09-21T09:33:45.785Z,13.20
2022-09-21T09:36:15.370Z,13.30
2022-09-21T09:38:48.476Z,13.10
2022-09-21T09:41:40.214Z,13.10
2022-09-21T09:44:22.981Z,13.10
2022-09-21T09:47:00.045Z,13.00
2022-09-21T09:49:38.707Z,13.00
2022-09-21T09:52:12.893Z,12.80
2022-09-21T09:54:41.086Z,12.70
2022-09-21T09:57:11.315Z,12.60
2022-09-21T09:59:44.559Z,12.60
2022-09-21T10:02:21.501Z,12.50
2022-09-21T10:05:03.123Z,12.40
2022-09-21T10:07:38.823Z,12.50
2022-09-21T10:10:28.057Z,12.60
2022-09-21T10:12:58.684Z,12.90
2022-09-21T10:15:27.159Z,13.10
2022-09-21T10:18:04.557Z,13.20
2022-09-21T10:20:33.142Z,13.30
2022-09-21T10:23:03.410Z,13.30
2022-09-21T10:25:34.723Z,13.40
2022-09-21T10:28:06.118Z,13.40
2022-09-21T10:30:38.629Z,13.30
2022-09-21T10:33:20.552Z,13.30
2022-09-21T10:35:53.646Z,13.40
2022-09-21T10:38:28.449Z,13.40
2022-09-21T10:40:56.935Z,13.50
2022-09-21T10:43:31.613Z,13.60
2022-09-21T10:46:00.515Z,13.60
2022-09-21T10:48:29.811Z,13.70
2022-09-21T10:50:58.902Z,13.60
2022-09-21T10:53:30.485Z,13.50
2022-09-21T10:56:17.877Z,13.50
2022-09-21T10:59:11.250Z,13.60
2022-09-21T11:01:45.670Z,13.60
2022-09-21T11:04:19.450Z,13.60
2022-09-21T11:06:50.789Z,13.50
2022-09-21T11:09:26.498Z,13.50
2022-09-21T11:12:00.562Z,13.50
2022-09-21T11:14:40.385Z,13.90
2022-09-21T11:17:14.313Z,14.40
2022-09-21T11:19:51.103Z,15.00
2022-09-21T11:22:27.222Z,14.90
2022-09-21T11:25:02.871Z,15.00
2022-09-21T11:27:36.392Z,15.10
2022-09-21T11:30:07.966Z,15.40
2022-09-21T11:33:02.349Z,15.30
2022-09-21T11:35:55.090Z,15.20
2022-09-21T11:38:43.101Z,15.00
2022-09-21T11:41:38.974Z,14.90
2022-09-21T11:44:40.195Z,14.90
2022-09-21T11:47:26.416Z,14.70
2022-09-21T11:50:29.366Z,14.30
2022-09-21T11:53:07.558Z,14.40
2022-09-21T11:56:00.771Z,14.40
2022-09-21T11:58:39.763Z,14.50
2022-09-21T12:02:15.990Z,14.70
2022-09-21T12:04:52.012Z,15.00
2022-09-21T12:07:40.575Z,15.10
2022-09-21T12:10:23.465Z,15.30
2022-09-21T12:12:55.541Z,15.40
2022-09-21T12:15:29.249Z,15.50
2022-09-21T12:18:04.420Z,15.50
2022-09-21T12:20:41.956Z,15.50
2022-09-21T12:23:19.385Z,15.50
2022-09-21T12:25:53.297Z,15.60
2022-09-21T12:28:26.887Z,15.60
2022-09-21T12:31:43.726Z,15.80
2022-09-21T12:34:19.220Z,15.90
2022-09-21T12:36:59.737Z,16.00
2022-09-21T12:39:37.175Z,15.90
2022-09-21T12:42:56.764Z,16.00
2022-09-21T12:45:44.749Z,16.00
2022-09-21T12:58:15.097Z,16.00
2022-09-21T13:45:50.026Z,15.40
2022-09-21T13:52:22.347Z,15.30
2022-09-21T13:59:06.500Z,14.90
2022-09-21T14:09:58.875Z,14.60
2022-09-21T14:13:11.600Z,14.60
2022-09-21T14:15:43.164Z,14.60
2022-09-21T14:18:50.798Z,14.60
2022-09-21T14:25:22.854Z,14.70
2022-09-21T14:28:35.200Z,14.70
2022-09-21T14:31:07.005Z,14.70
2022-09-21T14:34:11.637Z,14.70
2022-09-21T14:36:44.242Z,14.70
2022-09-21T14:39:40.742Z,14.70
2022-09-21T14:42:28.998Z,14.70
2022-09-21T14:45:18.422Z,14.60
2022-09-21T14:48:06.758Z,14.60
2022-09-21T14:50:37.638Z,14.50
2022-09-21T14:53:35.608Z,14.40
2022-09-21T14:56:15.968Z,14.40
2022-09-21T14:58:58.421Z,14.40
2022-09-21T15:01:38.423Z,14.20
2022-09-21T15:04:31.991Z,14.30
2022-09-21T15:07:40.872Z,14.20
2022-09-21T15:10:43.810Z,14.20
2022-09-21T15:13:20.297Z,14.20
2022-09-21T15:16:12.858Z,14.20
2022-09-21T15:18:44.185Z,14.20
2022-09-21T15:21:24.279Z,14.20
2022-09-21T15:23:53.047Z,14.10
2022-09-21T15:26:26.750Z,14.00
2022-09-21T15:29:09.384Z,14.10
2022-09-21T15:31:41.452Z,14.00
2022-09-21T15:34:11.138Z,14.00
2022-09-21T15:36:41.334Z,14.10
2022-09-21T15:39:22.994Z,14.00
2022-09-21T15:42:24.698Z,13.80
2022-09-21T15:45:14.416Z,13.90
2022-09-21T15:47:45.027Z,13.80
2022-09-21T15:50:14.611Z,13.80
2022-09-21T15:52:47.837Z,13.60
2022-09-21T15:55:21.415Z,13.50
2022-09-21T15:57:51.936Z,13.30
2022-09-21T16:00:23.737Z,12.90
2022-09-21T16:03:06.876Z,12.60
2022-09-21T16:05:44.516Z,12.00
2022-09-21T16:08:31.136Z,11.70
2022-09-21T16:11:19.043Z,11.50
2022-09-21T16:14:05.857Z,11.40
2022-09-21T16:16:34.391Z,11.40
2022-09-21T16:19:04.662Z,11.30
2022-09-21T16:21:34.570Z,11.30
2022-09-21T16:24:12.666Z,11.20
2022-09-21T16:26:42.695Z,11.10
2022-09-21T16:29:25.551Z,11.10
2022-09-21T16:32:29.586Z,11.00
2022-09-21T16:35:27.014Z,11.00
2022-09-21T16:37:58.725Z,10.90
2022-09-21T16:40:27.210Z,10.80
2022-09-21T16:42:55.818Z,10.80
2022-09-21T16:45:28.768Z,10.70
2022-09-21T16:47:57.806Z,10.70
2022-09-21T16:50:28.515Z,10.60
2022-09-21T16:52:56.900Z,10.50
2022-09-21T16:55:28.962Z,10.60
2022-09-21T16:57:57.646Z,10.50
2022-09-21T17:00:25.915Z,10.50
2022-09-21T17:02:54.069Z,10.40
2022-09-21T17:05:22.176Z,10.40
2022-09-21T17:07:55.104Z,10.30
2022-09-21T17:10:29.202Z,10.30
2022-09-21T17:12:57.399Z,10.30
2022-09-21T17:15:26.556Z,10.20
2022-09-21T17:17:54.658Z,10.20
2022-09-21T17:20:32.229Z,10.20
2022-09-21T17:23:03.169Z,10.20
2022-09-21T17:25:32.878Z,10.20
2022-09-21T17:28:01.461Z,10.20
2022-09-21T17:30:30.206Z,10.30
2022-09-21T17:32:58.507Z,10.30
2022-09-21T17:35:32.030Z,10.30
2022-09-21T17:38:02.376Z,10.30
2022-09-21T17:40:31.175Z,10.20
2022-09-21T17:43:12.027Z,10.20
2022-09-21T17:45:45.132Z,10.20
2022-09-21T17:48:20.267Z,10.20
2022-09-21T17:50:49.593Z,10.10
2022-09-21T17:53:37.245Z,10.10
2022-09-21T17:56:32.867Z,10.00
2022-09-21T17:59:03.224Z,10.00
2022-09-21T18:01:38.019Z,9.90
2022-09-21T18:04:08.552Z,9.90
2022-09-21T18:06:37.477Z,9.90
2022-09-21T18:09:08.422Z,9.80
2022-09-21T18:12:13.412Z,9.80
2022-09-21T18:14:48.880Z,9.70
2022-09-21T18:17:37.614Z,9.70
2022-09-21T18:20:18.327Z,9.70
2022-09-21T18:22:55.771Z,9.70
2022-09-21T18:25:29.920Z,9.60
2022-09-21T18:27:59.375Z,9.50
2022-09-21T18:30:27.956Z,9.60
2022-09-21T18:33:10.734Z,9.50
2022-09-21T18:35:51.831Z,9.40
2022-09-21T18:38:25.262Z,9.40
2022-09-21T18:41:08.793Z,9.40
2022-09-21T18:43:46.090Z,9.40
2022-09-21T18:46:17.985Z,9.30
2022-09-21T18:48:56.175Z,9.30
2022-09-21T18:51:30.489Z,9.20
2022-09-21T18:54:00.229Z,9.20
2022-09-21T18:56:35.101Z,9.20
2022-09-21T18:59:04.302Z,9.10
2022-09-21T19:01:34.370Z,9.10
2022-09-21T19:04:03.216Z,9.00
2022-09-21T19:06:41.249Z,9.00
2022-09-21T19:09:26.544Z,9.00
2022-09-21T19:12:01.355Z,8.90
2022-09-21T19:14:53.097Z,8.90
2022-09-21T19:17:34.363Z,8.80
2022-09-21T19:20:25.500Z,8.80
2022-09-21T19:23:01.795Z,8.80
2022-09-21T19:25:37.382Z,8.80
2022-09-21T19:28:28.893Z,8.80
2022-09-21T19:31:09.959Z,8.80
2022-09-21T19:33:49.912Z,8.90
2022-09-21T19:36:19.148Z,8.90
2022-09-21T19:38:48.763Z,9.00
2022-09-21T19:41:35.206Z,9.10
2022-09-21T19:44:15.320Z,9.10
2022-09-21T19:46:52.038Z,9.20
2022-09-21T19:49:22.226Z,9.20
2022-09-21T19:51:51.854Z,9.20
2022-09-21T19:54:39.093Z,9.20
2022-09-21T19:57:32.402Z,9.20
2022-09-21T20:00:03.074Z,9.20
2022-09-21T20:02:38.590Z,9.30
2022-09-21T20:05:12.168Z,9.30
2022-09-21T20:07:49.975Z,9.30
2022-09-21T20:10:36.411Z,9.30
2022-09-21T20:13:24.014Z,9.30
2022-09-21T20:16:00.027Z,9.30
2022-09-21T20:18:38.860Z,9.30
2022-09-21T20:21:13.700Z,9.40
2022-09-21T20:23:42.522Z,9.40
2022-09-21T20:26:23.926Z,9.40
2022-09-21T20:28:53.071Z,9.60
2022-09-21T20:31:23.712Z,9.50
2022-09-21T20:33:53.275Z,9.50
2022-09-21T20:36:22.831Z,9.50
2022-09-21T20:38:50.899Z,9.50
2022-09-21T20:41:24.540Z,9.50
2022-09-21T20:43:53.047Z,9.50
2022-09-21T20:46:22.692Z,9.50
2022-09-21T20:49:00.294Z,9.40
2022-09-21T20:51:28.816Z,9.50
2022-09-21T20:53:57.402Z,9.30
2022-09-21T20:56:25.573Z,9.30
2022-09-21T20:58:53.848Z,9.30
2022-09-21T21:01:24.710Z,9.20
2022-09-21T21:03:56.113Z,9.20
2022-09-21T21:06:24.223Z,9.10
2022-09-21T21:08:52.296Z,9.10
2022-09-21T21:11:20.557Z,9.10
2022-09-21T21:13:48.841Z,9.00
2022-09-21T21:16:16.923Z,8.90
2022-09-21T21:18:46.519Z,8.90
2022-09-21T21:21:14.917Z,8.80
2022-09-21T21:24:00.583Z,8.80
2022-09-21T21:26:44.220Z,8.80
2022-09-21T21:29:16.835Z,8.70
2022-09-21T21:31:45.175Z,8.70
2022-09-21T21:34:14.958Z,8.70
2022-09-21T21:36:43.252Z,8.70
2022-09-21T21:39:11.458Z,8.70
2022-09-21T21:41:39.540Z,8.70
2022-09-21T21:44:07.704Z,8.50
2022-09-21T21:46:36.018Z,8.50
2022-09-21T21:49:04.212Z,8.40
2022-09-21T21:51:33.953Z,8.40
2022-09-21T21:54:02.122Z,8.30
2022-09-21T21:56:30.187Z,8.20
2022-09-21T21:59:00.095Z,8.20
2022-09-21T22:01:29.933Z,8.00
2022-09-21T22:03:59.911Z,8.10
2022-09-21T22:06:29.308Z,8.00
2022-09-21T22:08:59.002Z,8.00
